createdAt,value
2023-04-17T00:00:17.086Z,102429.72
2023-04-17T00:00:50.339Z,102432.53
2023-04-17T00:01:21.863Z,102427.72
2023-04-17T00:01:55.680Z,102429.22
2023-04-17T00:02:29.965Z,102433.03
2023-04-17T00:03:01.950Z,102430.00
2023-04-17T00:03:33.914Z,102433.31
2023-04-17T00:04:10.678Z,102429.66
2023-04-17T00:04:42.846Z,102434.78
2023-04-17T00:05:17.001Z,102439.09
2023-04-17T00:05:48.878Z,102427.66
2023-04-17T00:06:20.426Z,102430.31
2023-04-17T00:06:53.886Z,102430.00
2023-04-17T00:07:28.395Z,102428.66
2023-04-17T00:08:00.115Z,102433.31
2023-04-17T00:08:32.764Z,102426.88
2023-04-17T00:09:04.776Z,102433.69
2023-04-17T00:09:36.333Z,102434.69
2023-04-17T00:10:09.234Z,102431.34
2023-04-17T00:10:40.826Z,102424.69
2023-04-17T00:11:12.355Z,102430.00
2023-04-17T00:11:43.869Z,102424.97
2023-04-17T00:12:16.062Z,102429.31
2023-04-17T00:12:47.707Z,102425.69
2023-04-17T00:13:19.281Z,102429.53
2023-04-17T00:13:50.802Z,102435.47
2023-04-17T00:14:22.357Z,102427.31
2023-04-17T00:14:53.890Z,102428.66
2023-04-17T00:15:25.698Z,102434.16
2023-04-17T00:15:57.296Z,102430.00
2023-04-17T00:16:28.905Z,102430.00
2023-04-17T00:17:00.589Z,102437.28
2023-04-17T00:17:32.202Z,102425.50
2023-04-17T00:18:03.784Z,102427.00
2023-04-17T00:18:35.445Z,102426.34
2023-04-17T00:19:06.976Z,102429.81
2023-04-17T00:19:38.561Z,102432.81
2023-04-17T00:20:10.870Z,102426.34
2023-04-17T00:20:42.437Z,102431.66
2023-04-17T00:21:14.239Z,102429.66
2023-04-17T00:21:45.849Z,102424.06
2023-04-17T00:22:17.445Z,102432.19
2023-04-17T00:22:49.026Z,102429.66
2023-04-17T00:23:20.901Z,102430.00
2023-04-17T00:23:52.517Z,102428.69
2023-04-17T00:24:24.026Z,102429.66
2023-04-17T00:24:55.579Z,102425.84
2023-04-17T00:25:27.253Z,102424.50
2023-04-17T00:25:58.752Z,102430.13
2023-04-17T00:26:32.349Z,102429.63
2023-04-17T00:27:03.964Z,102426.31
2023-04-17T00:27:35.608Z,102430.66
2023-04-17T00:28:07.255Z,102430.31
2023-04-17T00:28:38.963Z,102436.59
2023-04-17T00:29:11.053Z,102429.31
2023-04-17T00:29:42.884Z,102438.94
2023-04-17T00:30:14.485Z,102435.44
2023-04-17T00:30:46.733Z,102435.63
2023-04-17T00:31:18.327Z,102436.13
2023-04-17T00:31:50.037Z,102437.94
2023-04-17T00:32:21.811Z,102439.28
2023-04-17T00:32:53.968Z,102430.78
2023-04-17T00:33:25.680Z,102438.59
2023-04-17T00:33:58.914Z,102432.81
2023-04-17T00:34:30.458Z,102437.63
2023-04-17T00:35:02.215Z,102429.16
2023-04-17T00:35:33.847Z,102426.66
2023-04-17T00:36:05.981Z,102431.97
2023-04-17T00:36:37.834Z,102433.31
2023-04-17T00:37:09.398Z,102434.97
2023-04-17T00:37:40.949Z,102427.31
2023-04-17T00:38:13.391Z,102433.28
2023-04-17T00:38:44.894Z,102435.13
2023-04-17T00:39:16.499Z,102432.66
2023-04-17T00:39:48.048Z,102428.31
2023-04-17T00:40:19.624Z,102427.31
2023-04-17T00:40:51.815Z,102432.13
2023-04-17T00:41:23.352Z,102432.94
2023-04-17T00:41:54.927Z,102430.31
2023-04-17T00:42:27.052Z,102427.00
2023-04-17T00:43:03.261Z,102431.31
2023-04-17T00:43:35.015Z,102429.31
2023-04-17T00:44:06.546Z,102430.81
2023-04-17T00:44:38.287Z,102432.31
2023-04-17T00:45:11.452Z,102436.34
2023-04-17T00:45:43.180Z,102434.97
2023-04-17T00:46:15.391Z,102432.47
2023-04-17T00:46:46.954Z,102429.38
2023-04-17T00:47:19.153Z,102422.41
2023-04-17T00:47:51.715Z,102435.84
2023-04-17T00:48:24.254Z,102436.13
2023-04-17T00:48:55.831Z,102435.63
2023-04-17T00:49:27.553Z,102428.63
2023-04-17T00:49:59.325Z,102434.94
2023-04-17T00:50:31.675Z,102436.94
2023-04-17T00:51:03.884Z,102430.81
2023-04-17T00:51:35.529Z,102433.28
2023-04-17T00:52:07.411Z,102428.63
2023-04-17T00:52:39.069Z,102428.63
2023-04-17T00:53:11.494Z,102435.59
2023-04-17T00:53:43.274Z,102426.63
2023-04-17T00:54:15.090Z,102423.31
2023-04-17T00:54:46.713Z,102426.13
2023-04-17T00:55:18.461Z,102429.63
2023-04-17T00:55:51.275Z,102427.13
2023-04-17T00:56:22.823Z,102435.59
2023-04-17T00:56:54.513Z,102430.28
2023-04-17T00:57:26.740Z,102430.06
2023-04-17T00:57:58.536Z,102431.53
2023-04-17T00:58:31.074Z,102434.53
2023-04-17T00:59:04.156Z,102430.72
2023-04-17T00:59:36.505Z,102427.38
2023-04-17T01:00:09.573Z,102428.88
2023-04-17T01:00:41.280Z,102426.06
2023-04-17T01:01:13.601Z,102427.91
2023-04-17T01:01:45.874Z,102423.75
2023-04-17T01:02:18.570Z,102429.88
2023-04-17T01:02:50.524Z,102433.19
2023-04-17T01:03:23.146Z,102423.25
2023-04-17T01:03:55.239Z,102428.72
2023-04-17T01:04:27.666Z,102431.72
2023-04-17T01:04:59.230Z,102427.56
2023-04-17T01:05:31.155Z,102434.53
2023-04-17T01:06:03.756Z,102430.75
2023-04-17T01:06:36.365Z,102434.53
2023-04-17T01:07:08.148Z,102425.28
2023-04-17T01:07:41.276Z,102426.97
2023-04-17T01:08:12.951Z,102431.06
2023-04-17T01:08:44.569Z,102436.69
2023-04-17T01:09:16.940Z,102425.25
2023-04-17T01:09:48.519Z,102428.72
2023-04-17T01:10:20.298Z,102435.84
2023-04-17T01:10:51.847Z,102429.22
2023-04-17T01:11:23.565Z,102429.22
2023-04-17T01:11:55.131Z,102428.94
2023-04-17T01:12:26.886Z,102429.22
2023-04-17T01:13:06.205Z,102428.22
2023-04-17T01:13:48.689Z,102432.53
2023-04-17T01:14:20.871Z,102429.03
2023-04-17T01:14:53.798Z,102434.53
2023-04-17T01:15:25.445Z,102431.53
2023-04-17T01:15:56.962Z,102431.53
2023-04-17T01:16:30.958Z,102436.34
2023-04-17T01:17:02.644Z,102426.56
2023-04-17T01:17:34.287Z,102431.34
2023-04-17T01:18:06.732Z,102433.53
2023-04-17T01:18:38.499Z,102434.50
2023-04-17T01:19:11.338Z,102431.19
2023-04-17T01:19:43.120Z,102438.50
2023-04-17T01:20:14.706Z,102438.19
2023-04-17T01:20:46.689Z,102427.25
2023-04-17T01:21:19.624Z,102443.88
2023-04-17T01:21:51.237Z,102441.00
2023-04-17T01:22:22.825Z,102434.03
2023-04-17T01:22:59.860Z,102435.84
2023-04-17T01:23:43.304Z,102434.16
2023-04-17T01:24:14.815Z,102432.81
2023-04-17T01:24:47.377Z,102436.84
2023-04-17T01:25:19.452Z,102437.69
2023-04-17T01:25:51.566Z,102437.50
2023-04-17T01:26:24.146Z,102436.06
2023-04-17T01:26:56.489Z,102435.75
2023-04-17T01:27:28.226Z,102437.25
2023-04-17T01:28:00.314Z,102444.38
2023-04-17T01:28:33.883Z,102443.50
2023-04-17T01:29:05.492Z,102440.31
2023-04-17T01:29:37.112Z,102432.03
2023-04-17T01:30:09.122Z,102439.56
2023-04-17T01:30:47.442Z,102444.53
2023-04-17T01:31:19.749Z,102438.06
2023-04-17T01:31:51.842Z,102444.38
2023-04-17T01:32:23.369Z,102441.81
2023-04-17T01:32:56.234Z,102437.16
2023-04-17T01:33:27.806Z,102439.22
2023-04-17T01:34:00.441Z,102432.94
2023-04-17T01:34:32.591Z,102438.06
2023-04-17T01:35:04.455Z,102443.22
2023-04-17T01:35:36.059Z,102435.91
2023-04-17T01:36:07.780Z,102441.50
2023-04-17T01:36:39.304Z,102446.31
2023-04-17T01:37:11.069Z,102440.81
2023-04-17T01:37:42.783Z,102443.63
2023-04-17T01:38:14.467Z,102445.59
2023-04-17T01:38:46.462Z,102438.34
2023-04-17T01:39:18.141Z,102446.78
2023-04-17T01:39:49.745Z,102442.47
2023-04-17T01:40:21.349Z,102449.84
2023-04-17T01:40:53.236Z,102443.38
2023-04-17T01:41:24.991Z,102445.69
2023-04-17T01:41:56.653Z,102454.41
2023-04-17T01:42:28.310Z,102452.50
2023-04-17T01:42:59.815Z,102447.34
2023-04-17T01:43:31.331Z,102445.53
2023-04-17T01:44:02.881Z,102446.16
2023-04-17T01:44:34.413Z,102448.53
2023-04-17T01:45:06.501Z,102450.69
2023-04-17T01:45:38.912Z,102442.03
2023-04-17T01:46:10.693Z,102447.44
2023-04-17T01:46:42.392Z,102446.53
2023-04-17T01:47:14.074Z,102442.88
2023-04-17T01:47:45.809Z,102438.75
2023-04-17T01:48:17.490Z,102448.69
2023-04-17T01:48:49.053Z,102445.38
2023-04-17T01:49:20.614Z,102446.81
2023-04-17T01:49:52.184Z,102453.16
2023-04-17T01:50:23.702Z,102443.03
2023-04-17T01:50:55.325Z,102447.13
2023-04-17T01:51:27.942Z,102447.50
2023-04-17T01:51:59.661Z,102444.81
2023-04-17T01:52:31.275Z,102452.75
2023-04-17T01:53:02.781Z,102449.94
2023-04-17T01:53:34.576Z,102452.75
2023-04-17T01:54:06.126Z,102446.94
2023-04-17T01:54:37.834Z,102447.59
2023-04-17T01:55:09.814Z,102448.09
2023-04-17T01:55:41.526Z,102455.56
2023-04-17T01:56:13.886Z,102453.72
2023-04-17T01:56:45.444Z,102447.44
2023-04-17T01:57:17.223Z,102450.75
2023-04-17T01:57:49.824Z,102452.38
2023-04-17T01:58:21.519Z,102449.50
2023-04-17T01:58:53.493Z,102450.41
2023-04-17T01:59:25.488Z,102453.09
2023-04-17T01:59:57.096Z,102450.94
2023-04-17T02:00:29.465Z,102451.59
2023-04-17T02:01:01.316Z,102449.09
2023-04-17T02:01:32.953Z,102461.34
2023-04-17T02:02:04.768Z,102454.81
2023-04-17T02:02:36.474Z,102456.03
2023-04-17T02:03:08.208Z,102459.69
2023-04-17T02:03:39.948Z,102453.56
2023-04-17T02:04:11.684Z,102452.38
2023-04-17T02:04:43.341Z,102456.38
2023-04-17T02:05:14.934Z,102455.06
2023-04-17T02:05:48.927Z,102458.03
2023-04-17T02:06:20.677Z,102462.34
2023-04-17T02:06:52.373Z,102458.69
2023-04-17T02:07:23.888Z,102456.63
2023-04-17T02:07:55.394Z,102452.53
2023-04-17T02:08:27.253Z,102459.72
2023-04-17T02:08:59.521Z,102456.09
2023-04-17T02:09:31.037Z,102465.09
2023-04-17T02:10:03.024Z,102458.25
2023-04-17T02:10:34.733Z,102459.09
2023-04-17T02:11:06.220Z,102457.75
2023-04-17T02:11:37.930Z,102462.06
2023-04-17T02:12:09.450Z,102463.38
2023-04-17T02:12:40.971Z,102462.38
2023-04-17T02:13:12.501Z,102458.06
2023-04-17T02:13:46.188Z,102456.72
2023-04-17T02:14:18.055Z,102458.38
2023-04-17T02:14:49.580Z,102465.53
2023-04-17T02:15:22.303Z,102463.69
2023-04-17T02:15:53.932Z,102465.00
2023-04-17T02:16:25.664Z,102457.03
2023-04-17T02:16:57.633Z,102462.38
2023-04-17T02:17:29.349Z,102457.03
2023-04-17T02:18:01.944Z,102462.69
2023-04-17T02:18:33.519Z,102463.97
2023-04-17T02:19:05.273Z,102463.63
2023-04-17T02:19:36.813Z,102463.34
2023-04-17T02:20:08.979Z,102457.53
2023-04-17T02:20:40.592Z,102457.34
2023-04-17T02:21:12.084Z,102455.69
2023-04-17T02:21:43.588Z,102462.16
2023-04-17T02:22:15.826Z,102452.31
2023-04-17T02:22:47.330Z,102459.34
2023-04-17T02:23:18.852Z,102456.41
2023-04-17T02:23:50.669Z,102459.88
2023-04-17T02:24:22.195Z,102461.03
2023-04-17T02:24:53.765Z,102453.41
2023-04-17T02:25:25.381Z,102458.72
2023-04-17T02:25:57.984Z,102457.00
2023-04-17T02:26:29.561Z,102465.31
2023-04-17T02:27:01.987Z,102458.75
2023-04-17T02:27:33.807Z,102456.16
2023-04-17T02:28:06.357Z,102457.75
2023-04-17T02:28:39.427Z,102456.31
2023-04-17T02:29:11.200Z,102462.22
2023-04-17T02:29:42.854Z,102459.06
2023-04-17T02:30:14.521Z,102456.69
2023-04-17T02:30:46.032Z,102461.19
2023-04-17T02:31:17.602Z,102458.56
2023-04-17T02:31:50.736Z,102457.75
2023-04-17T02:32:22.454Z,102457.06
2023-04-17T02:32:54.960Z,102451.81
2023-04-17T02:33:27.103Z,102457.13
2023-04-17T02:33:58.623Z,102457.75
2023-04-17T02:34:31.013Z,102449.47
2023-04-17T02:35:02.673Z,102456.81
2023-04-17T02:35:34.618Z,102452.13
2023-04-17T02:36:06.428Z,102464.78
2023-04-17T02:36:44.018Z,102456.81
2023-04-17T02:37:15.832Z,102459.97
2023-04-17T02:37:47.615Z,102459.09
2023-04-17T02:38:19.293Z,102453.50
2023-04-17T02:38:50.861Z,102462.44
2023-04-17T02:39:22.384Z,102462.44
2023-04-17T02:39:54.322Z,102469.69
2023-04-17T02:40:26.103Z,102457.81
2023-04-17T02:41:05.402Z,102459.41
2023-04-17T02:41:38.034Z,102464.88
2023-04-17T02:42:12.931Z,102462.88
2023-04-17T02:42:45.966Z,102455.72
2023-04-17T02:43:18.198Z,102456.72
2023-04-17T02:43:49.930Z,102457.44
2023-04-17T02:44:22.668Z,102447.97
2023-04-17T02:44:54.206Z,102458.38
2023-04-17T02:45:26.753Z,102462.31
2023-04-17T02:45:58.735Z,102454.34
2023-04-17T02:46:31.860Z,102459.97
2023-04-17T02:47:03.518Z,102458.69
2023-04-17T02:47:37.853Z,102457.41
2023-04-17T02:48:09.492Z,102460.38
2023-04-17T02:48:41.151Z,102458.69
2023-04-17T02:49:13.327Z,102461.31
2023-04-17T02:49:45.037Z,102463.69
2023-04-17T02:50:16.579Z,102460.00
2023-04-17T02:51:04.696Z,102465.47
2023-04-17T02:51:36.524Z,102462.03
2023-04-17T02:52:08.248Z,102462.38
2023-04-17T02:52:40.329Z,102459.41
2023-04-17T02:53:11.863Z,102461.91
2023-04-17T02:53:43.381Z,102466.22
2023-04-17T02:54:14.930Z,102458.56
2023-04-17T02:54:47.138Z,102464.72
2023-04-17T02:55:21.131Z,102461.06
2023-04-17T02:55:52.808Z,102456.91
2023-04-17T02:56:27.255Z,102464.22
2023-04-17T02:56:58.777Z,102464.22
2023-04-17T02:57:30.493Z,102468.69
2023-04-17T02:58:02.028Z,102465.03
2023-04-17T02:58:33.571Z,102460.41
2023-04-17T02:59:05.159Z,102464.03
2023-04-17T02:59:37.359Z,102456.41
2023-04-17T03:00:12.748Z,102460.06
2023-04-17T03:00:44.367Z,102458.06
2023-04-17T03:01:20.225Z,102459.72
2023-04-17T03:01:51.951Z,102458.22
2023-04-17T03:02:24.545Z,102459.38
2023-04-17T03:02:56.483Z,102449.13
2023-04-17T03:03:31.212Z,102462.03
2023-04-17T03:04:03.427Z,102457.03
2023-04-17T03:04:35.710Z,102461.19
2023-04-17T03:05:07.555Z,102457.41
2023-04-17T03:05:39.797Z,102460.88
2023-04-17T03:06:11.378Z,102458.91
2023-04-17T03:06:43.116Z,102461.91
2023-04-17T03:07:18.575Z,102456.41
2023-04-17T03:07:52.740Z,102459.41
2023-04-17T03:08:24.825Z,102466.09
2023-04-17T03:08:56.959Z,102468.75
2023-04-17T03:09:28.591Z,102464.72
2023-04-17T03:10:00.131Z,102469.69
2023-04-17T03:10:31.707Z,102465.38
2023-04-17T03:11:03.465Z,102463.38
2023-04-17T03:11:35.201Z,102471.34
2023-04-17T03:12:06.820Z,102458.25
2023-04-17T03:12:38.375Z,102467.03
2023-04-17T03:13:09.896Z,102467.75
2023-04-17T03:13:43.462Z,102469.88
2023-04-17T03:14:15.581Z,102466.03
2023-04-17T03:14:47.118Z,102469.69
2023-04-17T03:15:18.767Z,102462.44
2023-04-17T03:15:50.458Z,102469.69
2023-04-17T03:16:22.273Z,102467.22
2023-04-17T03:16:53.972Z,102465.72
2023-04-17T03:17:25.793Z,102467.84
2023-04-17T03:17:57.682Z,102470.50
2023-04-17T03:18:29.394Z,102470.19
2023-04-17T03:19:02.998Z,102468.34
2023-04-17T03:19:34.655Z,102468.34
2023-04-17T03:20:07.795Z,102471.84
2023-04-17T03:20:39.491Z,102470.50
2023-04-17T03:21:11.008Z,102472.00
2023-04-17T03:21:42.596Z,102467.53
2023-04-17T03:22:15.293Z,102475.66
2023-04-17T03:22:46.919Z,102475.66
2023-04-17T03:23:19.236Z,102470.97
2023-04-17T03:23:50.877Z,102465.69
2023-04-17T03:24:24.590Z,102466.63
2023-04-17T03:24:56.193Z,102467.97
2023-04-17T03:25:30.359Z,102472.78
2023-04-17T03:26:02.046Z,102470.63
2023-04-17T03:26:36.678Z,102465.00
2023-04-17T03:27:12.441Z,102469.31
2023-04-17T03:27:46.738Z,102471.81
2023-04-17T03:28:19.156Z,102479.59
2023-04-17T03:28:50.773Z,102469.00
2023-04-17T03:29:22.402Z,102472.31
2023-04-17T03:29:54.915Z,102473.97
2023-04-17T03:30:26.958Z,102470.81
2023-04-17T03:31:01.452Z,102470.66
2023-04-17T03:31:34.333Z,102470.66
2023-04-17T03:32:06.280Z,102477.63
2023-04-17T03:32:38.209Z,102470.34
2023-04-17T03:33:09.836Z,102468.16
2023-04-17T03:33:41.861Z,102469.31
2023-04-17T03:34:13.560Z,102479.41
2023-04-17T03:34:45.994Z,102476.41
2023-04-17T03:35:17.525Z,102464.47
2023-04-17T03:35:49.095Z,102467.94
2023-04-17T03:36:20.654Z,102475.56
2023-04-17T03:36:52.340Z,102474.91
2023-04-17T03:37:23.977Z,102471.03
2023-04-17T03:37:55.882Z,102470.38
2023-04-17T03:38:27.993Z,102469.38
2023-04-17T03:38:59.826Z,102467.88
2023-04-17T03:39:31.420Z,102468.19
2023-04-17T03:40:05.238Z,102477.13
2023-04-17T03:40:37.057Z,102469.38
2023-04-17T03:41:10.184Z,102475.50
2023-04-17T03:41:41.824Z,102474.53
2023-04-17T03:42:14.898Z,102471.88
2023-04-17T03:42:46.620Z,102475.19
2023-04-17T03:43:18.403Z,102472.25
2023-04-17T03:43:50.673Z,102471.59
2023-04-17T03:44:22.247Z,102472.09
2023-04-17T03:44:56.105Z,102476.41
2023-04-17T03:45:29.219Z,102470.28
2023-04-17T03:46:01.640Z,102474.94
2023-04-17T03:46:34.324Z,102466.97
2023-04-17T03:47:06.003Z,102466.81
2023-04-17T03:47:37.834Z,102471.97
2023-04-17T03:48:09.600Z,102475.78
2023-04-17T03:48:42.584Z,102470.78
2023-04-17T03:49:14.392Z,102465.63
2023-04-17T03:49:46.157Z,102467.31
2023-04-17T03:50:18.050Z,102463.97
2023-04-17T03:50:56.775Z,102462.50
2023-04-17T03:51:28.668Z,102468.97
2023-04-17T03:52:05.575Z,102469.63
2023-04-17T03:52:37.514Z,102465.84
2023-04-17T03:53:09.875Z,102471.63
2023-04-17T03:53:42.074Z,102465.63
2023-04-17T03:54:16.532Z,102458.00
2023-04-17T03:54:50.245Z,102462.63
2023-04-17T03:55:22.262Z,102463.16
2023-04-17T03:55:54.236Z,102461.31
2023-04-17T03:56:30.955Z,102461.84
2023-04-17T03:57:03.521Z,102464.66
2023-04-17T03:57:36.258Z,102461.00
2023-04-17T03:58:08.455Z,102467.47
2023-04-17T03:58:40.038Z,102467.47
2023-04-17T03:59:14.231Z,102454.88
2023-04-17T03:59:47.998Z,102466.31
2023-04-17T04:00:21.831Z,102467.16
2023-04-17T04:00:58.957Z,102467.66
2023-04-17T04:01:34.310Z,102471.31
2023-04-17T04:02:23.050Z,102467.00
2023-04-17T04:02:55.689Z,102472.66
2023-04-17T04:03:32.003Z,102466.34
2023-04-17T04:04:04.755Z,102472.31
2023-04-17T04:04:36.611Z,102467.19
2023-04-17T04:05:16.048Z,102465.00
2023-04-17T04:05:48.090Z,102468.66
2023-04-17T04:06:20.361Z,102466.00
2023-04-17T04:06:54.478Z,102473.78
2023-04-17T04:07:26.215Z,102464.50
2023-04-17T04:07:58.133Z,102469.31
2023-04-17T04:08:59.023Z,102474.31
2023-04-17T04:09:30.793Z,102470.66
2023-04-17T04:10:03.234Z,102469.47
2023-04-17T04:10:35.417Z,102470.00
2023-04-17T04:11:07.300Z,102467.84
2023-04-17T04:11:41.859Z,102470.00
2023-04-17T04:12:13.546Z,102471.34
2023-04-17T04:12:48.389Z,102471.16
2023-04-17T04:13:20.728Z,102472.66
2023-04-17T04:13:57.761Z,102473.31
2023-04-17T04:14:29.697Z,102468.00
2023-04-17T04:15:01.373Z,102468.69
2023-04-17T04:15:34.445Z,102471.50
2023-04-17T04:16:09.590Z,102465.69
2023-04-17T04:16:43.549Z,102471.66
2023-04-17T04:17:17.168Z,102469.31
2023-04-17T04:17:48.852Z,102466.81
2023-04-17T04:18:20.703Z,102470.00
2023-04-17T04:18:52.970Z,102470.97
2023-04-17T04:19:25.058Z,102468.16
2023-04-17T04:19:57.189Z,102468.69
2023-04-17T04:20:29.563Z,102467.00
2023-04-17T04:21:12.781Z,102473.16
2023-04-17T04:21:46.495Z,102472.84
2023-04-17T04:22:21.258Z,102468.34
2023-04-17T04:22:59.333Z,102468.84
2023-04-17T04:23:31.525Z,102471.50
2023-04-17T04:24:03.246Z,102472.31
2023-04-17T04:24:35.309Z,102468.84
2023-04-17T04:25:08.486Z,102465.03
2023-04-17T04:25:52.013Z,102469.50
2023-04-17T04:26:33.355Z,102471.84
2023-04-17T04:27:05.304Z,102477.00
2023-04-17T04:27:39.670Z,102463.88
2023-04-17T04:28:13.283Z,102474.66
2023-04-17T04:28:44.867Z,102479.81
2023-04-17T04:29:31.480Z,102466.84
2023-04-17T04:30:10.446Z,102471.16
2023-04-17T04:30:50.552Z,102464.72
2023-04-17T04:31:25.741Z,102469.03
2023-04-17T04:31:57.796Z,102469.88
2023-04-17T04:32:34.845Z,102471.69
2023-04-17T04:33:08.364Z,102467.38
2023-04-17T04:33:40.275Z,102470.03
2023-04-17T04:34:13.423Z,102471.00
2023-04-17T04:34:45.032Z,102472.50
2023-04-17T04:35:16.763Z,102468.88
2023-04-17T04:35:48.833Z,102473.72
2023-04-17T04:36:20.516Z,102470.69
2023-04-17T04:36:57.383Z,102464.25
2023-04-17T04:37:46.478Z,102470.41
2023-04-17T04:38:18.846Z,102470.75
2023-04-17T04:38:53.152Z,102467.09
2023-04-17T04:39:31.431Z,102461.28
2023-04-17T04:40:09.164Z,102478.03
2023-04-17T04:40:44.023Z,102471.91
2023-04-17T04:41:17.507Z,102478.03
2023-04-17T04:41:52.149Z,102469.56
2023-04-17T04:42:27.234Z,102469.91
2023-04-17T04:43:17.102Z,102470.75
2023-04-17T04:43:50.330Z,102478.22
2023-04-17T04:44:22.097Z,102482.03
2023-04-17T04:44:56.385Z,102478.72
2023-04-17T04:45:31.171Z,102476.38
2023-04-17T04:46:03.790Z,102474.72
2023-04-17T04:46:38.690Z,102476.06
2023-04-17T04:47:10.424Z,102475.56
2023-04-17T04:47:42.730Z,102475.72
2023-04-17T04:48:14.324Z,102474.06
2023-04-17T04:48:45.926Z,102475.41
2023-04-17T04:49:17.491Z,102480.72
2023-04-17T04:49:49.563Z,102478.38
2023-04-17T04:50:24.575Z,102477.72
2023-04-17T04:50:56.401Z,102472.09
2023-04-17T04:51:28.085Z,102477.72
2023-04-17T04:51:59.773Z,102480.31
2023-04-17T04:52:36.719Z,102477.22
2023-04-17T04:53:17.337Z,102477.22
2023-04-17T04:53:57.909Z,102487.00
2023-04-17T04:54:29.525Z,102481.53
2023-04-17T04:55:04.637Z,102485.84
2023-04-17T04:55:37.879Z,102484.19
2023-04-17T04:56:10.360Z,102486.78
2023-04-17T04:56:44.908Z,102484.50
2023-04-17T04:57:17.914Z,102487.66
2023-04-17T04:57:54.143Z,102480.53
2023-04-17T04:58:26.422Z,102480.03
2023-04-17T04:59:00.740Z,102484.78
2023-04-17T04:59:36.741Z,102482.84
2023-04-17T05:00:28.451Z,102482.09
2023-04-17T05:01:02.897Z,102490.22
2023-04-17T05:01:40.354Z,102486.91
2023-04-17T05:02:13.636Z,102490.53
2023-04-17T05:02:45.457Z,102493.19
2023-04-17T05:03:17.404Z,102483.56
2023-04-17T05:03:50.042Z,102481.59
2023-04-17T05:04:27.623Z,102493.19
2023-04-17T05:05:04.576Z,102485.22
2023-04-17T05:05:38.533Z,102492.19
2023-04-17T05:06:11.268Z,102493.88
2023-04-17T05:06:47.808Z,102490.84
2023-04-17T05:07:19.344Z,102492.19
2023-04-17T05:07:53.490Z,102496.16
2023-04-17T05:08:25.031Z,102498.16
2023-04-17T05:09:05.692Z,102491.84
2023-04-17T05:09:37.306Z,102497.00
2023-04-17T05:10:10.095Z,102493.03
2023-04-17T05:10:46.076Z,102492.88
2023-04-17T05:11:18.329Z,102499.53
2023-04-17T05:11:52.774Z,102493.91
2023-04-17T05:12:24.523Z,102494.56
2023-04-17T05:12:56.160Z,102496.56
2023-04-17T05:13:30.069Z,102494.28
2023-04-17T05:14:02.242Z,102499.59
2023-04-17T05:14:39.370Z,102489.25
2023-04-17T05:15:13.003Z,102495.28
2023-04-17T05:15:44.832Z,102495.94
2023-04-17T05:16:16.686Z,102493.56
2023-04-17T05:16:48.305Z,102501.03
2023-04-17T05:17:20.389Z,102499.22
2023-04-17T05:17:52.042Z,102493.56
2023-04-17T05:18:23.845Z,102498.88
2023-04-17T05:18:55.617Z,102498.53
2023-04-17T05:19:46.749Z,102496.63
2023-04-17T05:20:19.071Z,102498.59
2023-04-17T05:20:55.379Z,102502.69
2023-04-17T05:21:31.122Z,102498.53
2023-04-17T05:22:02.944Z,102504.50
2023-04-17T05:22:38.635Z,102501.53
2023-04-17T05:23:14.569Z,102506.34
2023-04-17T05:23:46.187Z,102506.16
2023-04-17T05:24:17.745Z,102505.19
2023-04-17T05:24:49.355Z,102501.25
2023-04-17T05:25:22.597Z,102502.53
2023-04-17T05:25:54.333Z,102497.78
2023-04-17T05:26:26.364Z,102504.41
2023-04-17T05:26:58.193Z,102505.91
2023-04-17T05:27:29.743Z,102500.59
2023-04-17T05:28:01.758Z,102508.41
2023-04-17T05:28:33.295Z,102514.75
2023-04-17T05:29:04.935Z,102515.91
2023-04-17T05:29:38.461Z,102518.91
2023-04-17T05:30:11.028Z,102506.28
2023-04-17T05:30:42.671Z,102510.78
2023-04-17T05:31:23.947Z,102512.25
2023-04-17T05:31:56.335Z,102513.91
2023-04-17T05:32:46.309Z,102507.97
2023-04-17T05:33:32.158Z,102508.09
2023-04-17T05:34:06.136Z,102504.63
2023-04-17T05:34:37.875Z,102509.13
2023-04-17T05:35:09.747Z,102504.31
2023-04-17T05:35:43.340Z,102507.63
2023-04-17T05:36:14.962Z,102511.00
2023-04-17T05:36:46.674Z,102513.66
2023-04-17T05:37:19.032Z,102505.69
2023-04-17T05:37:50.843Z,102508.84
2023-04-17T05:38:22.388Z,102515.16
2023-04-17T05:38:53.910Z,102508.47
2023-04-17T05:39:25.593Z,102511.28
2023-04-17T05:39:57.134Z,102511.81
2023-04-17T05:40:28.700Z,102512.34
2023-04-17T05:41:01.773Z,102515.66
2023-04-17T05:41:33.579Z,102516.16
2023-04-17T05:42:05.298Z,102517.00
2023-04-17T05:42:37.105Z,102514.00
2023-04-17T05:43:10.238Z,102514.16
2023-04-17T05:43:43.202Z,102509.00
2023-04-17T05:44:14.708Z,102517.25
2023-04-17T05:44:47.372Z,102512.66
2023-04-17T05:45:19.278Z,102513.50
2023-04-17T05:45:51.080Z,102513.59
2023-04-17T05:46:22.840Z,102512.25
2023-04-17T05:46:57.277Z,102511.25
2023-04-17T05:47:29.197Z,102512.91
2023-04-17T05:48:01.074Z,102510.59
2023-04-17T05:48:33.136Z,102515.06
2023-04-17T05:49:05.003Z,102519.22
2023-04-17T05:49:36.672Z,102519.22
2023-04-17T05:50:09.253Z,102521.53
2023-04-17T05:50:41.129Z,102518.19
2023-04-17T05:51:13.051Z,102516.06
2023-04-17T05:51:44.605Z,102521.53
2023-04-17T05:52:16.375Z,102522.47
2023-04-17T05:52:49.067Z,102517.16
2023-04-17T05:53:21.619Z,102519.50
2023-04-17T05:53:56.403Z,102519.50
2023-04-17T05:54:30.186Z,102528.94
2023-04-17T05:55:03.808Z,102530.44
2023-04-17T05:55:37.481Z,102522.31
2023-04-17T05:56:12.725Z,102523.31
2023-04-17T05:56:44.266Z,102526.31
2023-04-17T05:57:16.521Z,102528.28
2023-04-17T05:57:48.226Z,102521.50
2023-04-17T05:58:23.668Z,102517.47
2023-04-17T05:58:58.854Z,102530.72
2023-04-17T05:59:30.562Z,102527.25
2023-04-17T06:00:09.043Z,102531.19
2023-04-17T06:00:46.278Z,102535.47
2023-04-17T06:01:22.516Z,102529.66
2023-04-17T06:01:59.524Z,102538.59
2023-04-17T06:02:31.460Z,102538.28
2023-04-17T06:03:03.571Z,102533.97
2023-04-17T06:03:40.123Z,102538.91
2023-04-17T06:04:19.983Z,102532.97
2023-04-17T06:04:53.423Z,102544.44
2023-04-17T06:05:25.218Z,102543.28
2023-04-17T06:05:57.306Z,102539.31
2023-04-17T06:06:29.775Z,102541.31
2023-04-17T06:07:03.171Z,102534.84
2023-04-17T06:07:35.177Z,102543.47
2023-04-17T06:08:07.085Z,102537.03
2023-04-17T06:08:38.667Z,102534.25
2023-04-17T06:09:11.366Z,102541.06
2023-04-17T06:09:43.335Z,102550.00
2023-04-17T06:10:15.813Z,102550.28
2023-04-17T06:10:50.148Z,102545.13
2023-04-17T06:11:21.759Z,102550.00
2023-04-17T06:11:53.698Z,102546.66
2023-04-17T06:12:25.488Z,102547.94
2023-04-17T06:12:57.689Z,102544.31
2023-04-17T06:13:29.535Z,102555.06
2023-04-17T06:14:01.980Z,102549.09
2023-04-17T06:14:33.558Z,102554.56
2023-04-17T06:15:11.357Z,102547.44
2023-04-17T06:15:43.020Z,102546.28